Lincoln Park, NJ

12:40 AM EDT on Agosto 31, 2015 (GMT -0400)
montville | | Change Station
CLOSE
Current Station
Personal Weather Stations
Location: Montville, NJ
Elevation: 325 ft
Nearby Weather Stations

Elev 325 ft 40.91 °N, 74.35 °W | Updated 21 seconds ago

Despexado
Despexado
74.1 °F
Feels Like 74 °F
N
0.0
Vento Variable Vento from ONO
Gusts 0.0 mph

Hoxe
High -- | Low -- °F
--% Chance of Precip.
Yesterday
High -- | Low -- °F
Precip. -- pol
6:22 AM 7:31 PM
Lúa chea, 97% visible
Presión 30.06 pol
Visibilidade 10.0 Millas
Nubes Despexado
Sensación de Calor 74 °F
Nivel de Rosada 68 °F
Humidade 80%
Rainfall pol
Fondo da neve Not available.
UV 0.0 out of 12
Pollen 10.30 out of 12
Air Quality Not available.
Flu Activity Not available.
METAR KCDW 310353Z 21003KT 10SM CLR 26/18 A3004 RMK AO2 SLP177 T02560178
Presión 30.06 pol
Visibilidade 10.0 Millas
Nubes Despexado
Sensación de Calor 74 °F
Nivel de Rosada 68 °F
Humidade 80%
Rainfall pol
Fondo da neve Not available.
UV 0.0 out of 12
Pollen 10.30 out of 12
Air Quality Not available.
Flu Activity Not available.
METAR KCDW 310353Z 21003KT 10SM CLR 26/18 A3004 RMK AO2 SLP177 T02560178

10-Day Weather Forecast

×

Almanac

Astronomía

Aug. 31, 2015 Rise Set
Tempo actual
Crepúsculo civil
Crepúsculo náutico
Crepúsculo astronómico
Lúa
Lonxitude da luz visíbel
Length of Day
Tomorrow will be .
, % of the Moon is Illuminated

Today's Extremes

State Highs State Lows

Community

WunderPhotos

Upload Photos

1,851,207 photos uploaded!

WunderBlogs® & News

Nearby

Air Quality

  Air Quality AQ Index Pollutant
Not available.

Snow Depth

Station Depth Elevation

Earthquake Activity

Cidade Distance Mag. Time & Date
Minimum magnitude displayed is 2.5.

Coastal Water Temperatures

Lugar Temperatura

Stations

Nearby Weather Stations

Station Location Temp Vento Xeado Nivel de Rosada Humidade Vento Precip. Elev Actualización Type